sensor_id;sensor_type;location;lat;lon;timestamp;temperature;humidity
22706;DHT22;11520;51.198;4.468;2023-05-07T00:00:21;17.00;99.90
22706;DHT22;11520;51.198;4.468;2023-05-07T00:02:48;16.90;99.90
22706;DHT22;11520;51.198;4.468;2023-05-07T00:05:14;16.80;99.90
22706;DHT22;11520;51.198;4.468;2023-05-07T00:07:40;16.80;99.90
22706;DHT22;11520;51.198;4.468;2023-05-07T00:10:07;16.80;99.90
22706;DHT22;11520;51.198;4.468;2023-05-07T00:12:33;16.90;99.90
22706;DHT22;11520;51.198;4.468;2023-05-07T00:15:05;17.00;99.90
22706;DHT22;11520;51.198;4.468;2023-05-07T00:17:32;17.00;99.90
22706;DHT22;11520;51.198;4.468;2023-05-07T00:19:58;17.00;99.90
22706;DHT22;11520;51.198;4.468;2023-05-07T00:22:24;17.10;99.90
22706;DHT22;11520;51.198;4.468;2023-05-07T00:24:50;17.10;99.90
22706;DHT22;11520;51.198;4.468;2023-05-07T00:27:16;17.10;99.90
22706;DHT22;11520;51.198;4.468;2023-05-07T00:29:42;17.00;99.90
22706;DHT22;11520;51.198;4.468;2023-05-07T00:32:09;16.90;99.90
22706;DHT22;11520;51.198;4.468;2023-05-07T00:34:35;16.90;99.90
22706;DHT22;11520;51.198;4.468;2023-05-07T00:37:01;16.80;99.90
22706;DHT22;11520;51.198;4.468;2023-05-07T00:39:27;16.70;99.90
22706;DHT22;11520;51.198;4.468;2023-05-07T00:41:52;16.60;99.90
22706;DHT22;11520;51.198;4.468;2023-05-07T00:44:18;16.50;99.90
22706;DHT22;11520;51.198;4.468;2023-05-07T00:46:43;16.60;99.90
22706;DHT22;11520;51.198;4.468;2023-05-07T00:49:10;16.60;99.90
22706;DHT22;11520;51.198;4.468;2023-05-07T00:51:36;16.50;99.90
22706;DHT22;11520;51.198;4.468;2023-05-07T00:54:02;16.20;99.90
22706;DHT22;11520;51.198;4.468;2023-05-07T00:56:28;16.00;99.90
22706;DHT22;11520;51.198;4.468;2023-05-07T00:58:54;16.10;99.90
22706;DHT22;11520;51.198;4.468;2023-05-07T01:01:20;16.10;99.90
22706;DHT22;11520;51.198;4.468;2023-05-07T01:03:46;16.10;99.90
22706;DHT22;11520;51.198;4.468;2023-05-07T01:06:13;16.30;99.90
22706;DHT22;11520;51.198;4.468;2023-05-07T01:08:43;16.30;99.90
22706;DHT22;11520;51.198;4.468;2023-05-07T01:11:09;16.40;99.90
22706;DHT22;11520;51.198;4.468;2023-05-07T01:13:37;16.30;99.90
22706;DHT22;11520;51.198;4.468;2023-05-07T01:16:05;16.30;99.90
22706;DHT22;11520;51.198;4.468;2023-05-07T01:18:34;16.30;99.90
22706;DHT22;11520;51.198;4.468;2023-05-07T01:21:01;16.30;99.90
22706;DHT22;11520;51.198;4.468;2023-05-07T01:23:29;16.30;99.90
22706;DHT22;11520;51.198;4.468;2023-05-07T01:25:56;16.40;99.90
22706;DHT22;11520;51.198;4.468;2023-05-07T01:28:22;16.40;99.90
22706;DHT22;11520;51.198;4.468;2023-05-07T01:30:53;16.40;99.90
22706;DHT22;11520;51.198;4.468;2023-05-07T01:33:21;16.40;99.90
22706;DHT22;11520;51.198;4.468;2023-05-07T01:35:50;16.50;99.90
22706;DHT22;11520;51.198;4.468;2023-05-07T01:38:18;16.60;99.90
22706;DHT22;11520;51.198;4.468;2023-05-07T01:40:44;16.60;99.90
22706;DHT22;11520;51.198;4.468;2023-05-07T01:43:10;16.50;99.90
22706;DHT22;11520;51.198;4.468;2023-05-07T01:45:36;16.50;99.90
22706;DHT22;11520;51.198;4.468;2023-05-07T01:48:03;16.50;99.90
22706;DHT22;11520;51.198;4.468;2023-05-07T01:50:30;16.50;99.90
22706;DHT22;11520;51.198;4.468;2023-05-07T01:53:01;16.50;99.90
22706;DHT22;11520;51.198;4.468;2023-05-07T01:55:27;16.40;99.90
22706;DHT22;11520;51.198;4.468;2023-05-07T01:57:52;16.40;99.90
22706;DHT22;11520;51.198;4.468;2023-05-07T02:00:18;16.30;99.90
22706;DHT22;11520;51.198;4.468;2023-05-07T02:02:44;16.30;99.90
22706;DHT22;11520;51.198;4.468;2023-05-07T02:05:10;16.20;99.90
22706;DHT22;11520;51.198;4.468;2023-05-07T02:07:36;16.20;99.90
22706;DHT22;11520;51.198;4.468;2023-05-07T02:10:01;16.10;99.90
22706;DHT22;11520;51.198;4.468;2023-05-07T02:12:28;16.20;99.90
22706;DHT22;11520;51.198;4.468;2023-05-07T02:14:54;16.20;99.90
22706;DHT22;11520;51.198;4.468;2023-05-07T02:17:19;16.10;99.90
22706;DHT22;11520;51.198;4.468;2023-05-07T02:19:45;16.00;99.90
22706;DHT22;11520;51.198;4.468;2023-05-07T02:22:11;15.90;99.90
22706;DHT22;11520;51.198;4.468;2023-05-07T02:24:36;15.90;99.90
22706;DHT22;11520;51.198;4.468;2023-05-07T02:27:02;16.00;99.90
22706;DHT22;11520;51.198;4.468;2023-05-07T02:29:28;16.00;99.90
22706;DHT22;11520;51.198;4.468;2023-05-07T02:31:54;16.10;99.90
22706;DHT22;11520;51.198;4.468;2023-05-07T02:34:21;16.10;99.90
22706;DHT22;11520;51.198;4.468;2023-05-07T02:36:46;16.20;99.90
22706;DHT22;11520;51.198;4.468;2023-05-07T02:39:13;16.10;99.90
22706;DHT22;11520;51.198;4.468;2023-05-07T02:41:39;16.10;99.90
22706;DHT22;11520;51.198;4.468;2023-05-07T02:44:04;16.10;99.90
22706;DHT22;11520;51.198;4.468;2023-05-07T02:46:30;16.20;99.90
22706;DHT22;11520;51.198;4.468;2023-05-07T02:48:56;16.20;99.90
22706;DHT22;11520;51.198;4.468;2023-05-07T02:51:22;16.20;99.90
22706;DHT22;11520;51.198;4.468;2023-05-07T02:53:48;16.30;99.90
22706;DHT22;11520;51.198;4.468;2023-05-07T02:56:14;16.40;99.90
22706;DHT22;11520;51.198;4.468;2023-05-07T02:58:40;16.50;99.90
22706;DHT22;11520;51.198;4.468;2023-05-07T03:01:07;16.50;99.90
22706;DHT22;11520;51.198;4.468;2023-05-07T03:03:33;16.50;99.90
22706;DHT22;11520;51.198;4.468;2023-05-07T03:05:59;16.50;99.90
22706;DHT22;11520;51.198;4.468;2023-05-07T03:08:25;16.50;99.90
22706;DHT22;11520;51.198;4.468;2023-05-07T03:10:51;16.50;99.90
22706;DHT22;11520;51.198;4.468;2023-05-07T03:13:17;16.50;99.90
22706;DHT22;11520;51.198;4.468;2023-05-07T03:15:43;16.50;99.90
22706;DHT22;11520;51.198;4.468;2023-05-07T03:18:08;16.50;99.90
22706;DHT22;11520;51.198;4.468;2023-05-07T03:20:34;16.50;99.90
22706;DHT22;11520;51.198;4.468;2023-05-07T03:23:01;16.60;99.90
22706;DHT22;11520;51.198;4.468;2023-05-07T03:25:27;16.60;99.90
22706;DHT22;11520;51.198;4.468;2023-05-07T03:27:53;16.70;99.90
22706;DHT22;11520;51.198;4.468;2023-05-07T03:30:19;16.70;99.90
22706;DHT22;11520;51.198;4.468;2023-05-07T03:32:45;16.70;99.90
22706;DHT22;11520;51.198;4.468;2023-05-07T03:35:11;16.70;99.90
22706;DHT22;11520;51.198;4.468;2023-05-07T03:37:38;16.70;99.90
22706;DHT22;11520;51.198;4.468;2023-05-07T03:40:04;16.80;99.90
22706;DHT22;11520;51.198;4.468;2023-05-07T03:42:30;16.70;99.90
22706;DHT22;11520;51.198;4.468;2023-05-07T03:44:56;16.70;99.90
22706;DHT22;11520;51.198;4.468;2023-05-07T03:47:21;16.70;99.90
22706;DHT22;11520;51.198;4.468;2023-05-07T03:49:47;16.60;99.90
22706;DHT22;11520;51.198;4.468;2023-05-07T03:52:14;16.50;99.90
22706;DHT22;11520;51.198;4.468;2023-05-07T03:54:40;16.50;99.90
22706;DHT22;11520;51.198;4.468;2023-05-07T03:57:06;16.50;99.90
22706;DHT22;11520;51.198;4.468;2023-05-07T03:59:31;16.50;99.90
22706;DHT22;11520;51.198;4.468;2023-05-07T04:01:57;16.30;99.90
22706;DHT22;11520;51.198;4.468;2023-05-07T04:04:23;16.30;99.90
22706;DHT22;11520;51.198;4.468;2023-05-07T04:06:49;16.30;99.90
22706;DHT22;11520;51.198;4.468;2023-05-07T04:09:14;16.20;99.90
22706;DHT22;11520;51.198;4.468;2023-05-07T04:11:40;16.10;99.90
22706;DHT22;11520;51.198;4.468;2023-05-07T04:14:06;15.80;99.90
22706;DHT22;11520;51.198;4.468;2023-05-07T04:16:31;15.80;99.90
22706;DHT22;11520;51.198;4.468;2023-05-07T04:18:57;15.70;99.90
22706;DHT22;11520;51.198;4.468;2023-05-07T04:21:23;15.70;99.90
22706;DHT22;11520;51.198;4.468;2023-05-07T04:23:49;15.70;99.90
22706;DHT22;11520;51.198;4.468;2023-05-07T04:26:15;15.90;99.90
22706;DHT22;11520;51.198;4.468;2023-05-07T04:28:41;16.00;99.90
22706;DHT22;11520;51.198;4.468;2023-05-07T04:31:07;16.10;99.90
22706;DHT22;11520;51.198;4.468;2023-05-07T04:33:33;16.20;99.90
22706;DHT22;11520;51.198;4.468;2023-05-07T04:36:01;16.20;99.90
22706;DHT22;11520;51.198;4.468;2023-05-07T04:38:30;16.20;99.90
22706;DHT22;11520;51.198;4.468;2023-05-07T04:40:57;16.10;99.90
22706;DHT22;11520;51.198;4.468;2023-05-07T04:43:23;15.80;99.90
22706;DHT22;11520;51.198;4.468;2023-05-07T04:45:51;15.90;99.90
22706;DHT22;11520;51.198;4.468;2023-05-07T04:48:17;16.10;99.90
22706;DHT22;11520;51.198;4.468;2023-05-07T04:50:47;16.20;99.90
22706;DHT22;11520;51.198;4.468;2023-05-07T04:53:12;16.40;99.90
22706;DHT22;11520;51.198;4.468;2023-05-07T04:55:38;16.50;99.90
22706;DHT22;11520;51.198;4.468;2023-05-07T04:58:04;16.50;99.90
22706;DHT22;11520;51.198;4.468;2023-05-07T05:00:30;16.30;99.90
22706;DHT22;11520;51.198;4.468;2023-05-07T05:02:56;16.30;99.90
22706;DHT22;11520;51.198;4.468;2023-05-07T05:05:22;16.30;99.90
22706;DHT22;11520;51.198;4.468;2023-05-07T05:07:47;16.40;99.90
22706;DHT22;11520;51.198;4.468;2023-05-07T05:10:13;16.20;99.90
22706;DHT22;11520;51.198;4.468;2023-05-07T05:12:38;16.20;99.90
22706;DHT22;11520;51.198;4.468;2023-05-07T05:15:05;16.50;99.90
22706;DHT22;11520;51.198;4.468;2023-05-07T05:17:31;16.60;99.90
22706;DHT22;11520;51.198;4.468;2023-05-07T05:19:57;16.60;99.90
22706;DHT22;11520;51.198;4.468;2023-05-07T05:22:22;16.30;99.90
22706;DHT22;11520;51.198;4.468;2023-05-07T05:24:49;16.30;99.90
22706;DHT22;11520;51.198;4.468;2023-05-07T05:27:15;16.50;99.90
22706;DHT22;11520;51.198;4.468;2023-05-07T05:29:41;16.80;99.90
22706;DHT22;11520;51.198;4.468;2023-05-07T05:32:06;17.00;99.90
22706;DHT22;11520;51.198;4.468;2023-05-07T05:34:32;17.20;99.90
22706;DHT22;11520;51.198;4.468;2023-05-07T05:36:59;17.20;99.90
22706;DHT22;11520;51.198;4.468;2023-05-07T05:39:25;17.30;99.90
22706;DHT22;11520;51.198;4.468;2023-05-07T05:41:50;17.40;99.90
22706;DHT22;11520;51.198;4.468;2023-05-07T05:44:16;17.60;99.90
22706;DHT22;11520;51.198;4.468;2023-05-07T05:46:42;17.50;99.90
22706;DHT22;11520;51.198;4.468;2023-05-07T05:49:07;17.60;99.90
22706;DHT22;11520;51.198;4.468;2023-05-07T05:51:33;17.60;99.90
22706;DHT22;11520;51.198;4.468;2023-05-07T05:53:59;17.60;99.90
22706;DHT22;11520;51.198;4.468;2023-05-07T05:56:25;17.50;99.90
22706;DHT22;11520;51.198;4.468;2023-05-07T05:58:51;17.50;99.90
22706;DHT22;11520;51.198;4.468;2023-05-07T06:01:17;17.60;99.90
22706;DHT22;11520;51.198;4.468;2023-05-07T06:03:44;17.30;99.90
22706;DHT22;11520;51.198;4.468;2023-05-07T06:06:09;17.30;99.90
22706;DHT22;11520;51.198;4.468;2023-05-07T06:08:35;17.20;99.90
22706;DHT22;11520;51.198;4.468;2023-05-07T06:11:01;17.20;99.90
22706;DHT22;11520;51.198;4.468;2023-05-07T06:13:27;17.20;99.90
22706;DHT22;11520;51.198;4.468;2023-05-07T06:15:53;17.10;99.90
22706;DHT22;11520;51.198;4.468;2023-05-07T06:18:19;17.20;99.90
22706;DHT22;11520;51.198;4.468;2023-05-07T06:20:45;17.20;99.90
22706;DHT22;11520;51.198;4.468;2023-05-07T06:23:11;17.20;99.90
22706;DHT22;11520;51.198;4.468;2023-05-07T06:25:37;17.50;99.90
22706;DHT22;11520;51.198;4.468;2023-05-07T06:28:02;17.60;99.90
22706;DHT22;11520;51.198;4.468;2023-05-07T06:30:28;17.70;99.90
22706;DHT22;11520;51.198;4.468;2023-05-07T06:32:53;18.00;99.90
22706;DHT22;11520;51.198;4.468;2023-05-07T06:35:19;18.20;99.90
22706;DHT22;11520;51.198;4.468;2023-05-07T06:37:45;18.30;99.90
22706;DHT22;11520;51.198;4.468;2023-05-07T06:40:11;18.50;99.90
22706;DHT22;11520;51.198;4.468;2023-05-07T06:42:38;18.80;99.90
22706;DHT22;11520;51.198;4.468;2023-05-07T06:45:04;19.10;99.90
22706;DHT22;11520;51.198;4.468;2023-05-07T06:47:30;19.30;99.90
22706;DHT22;11520;51.198;4.468;2023-05-07T06:49:55;19.60;99.90
22706;DHT22;11520;51.198;4.468;2023-05-07T06:52:21;19.90;99.90
22706;DHT22;11520;51.198;4.468;2023-05-07T06:54:48;20.20;99.90
22706;DHT22;11520;51.198;4.468;2023-05-07T06:57:13;20.60;99.90
22706;DHT22;11520;51.198;4.468;2023-05-07T06:59:39;20.80;99.90
22706;DHT22;11520;51.198;4.468;2023-05-07T07:02:06;20.90;99.90
22706;DHT22;11520;51.198;4.468;2023-05-07T07:04:31;20.90;99.90
22706;DHT22;11520;51.198;4.468;2023-05-07T07:06:57;20.90;99.90
22706;DHT22;11520;51.198;4.468;2023-05-07T07:09:22;20.80;99.90
22706;DHT22;11520;51.198;4.468;2023-05-07T07:11:48;20.80;99.90
22706;DHT22;11520;51.198;4.468;2023-05-07T07:14:14;20.60;99.90
22706;DHT22;11520;51.198;4.468;2023-05-07T07:16:40;20.40;99.90
22706;DHT22;11520;51.198;4.468;2023-05-07T07:19:06;20.40;99.90
22706;DHT22;11520;51.198;4.468;2023-05-07T07:21:31;20.30;99.90
22706;DHT22;11520;51.198;4.468;2023-05-07T07:23:57;20.40;99.90
22706;DHT22;11520;51.198;4.468;2023-05-07T07:26:23;20.60;99.90
22706;DHT22;11520;51.198;4.468;2023-05-07T07:28:49;20.80;99.90
22706;DHT22;11520;51.198;4.468;2023-05-07T07:31:14;20.90;99.90
22706;DHT22;11520;51.198;4.468;2023-05-07T07:33:40;21.10;99.90
22706;DHT22;11520;51.198;4.468;2023-05-07T07:36:06;21.20;99.90
22706;DHT22;11520;51.198;4.468;2023-05-07T07:38:34;21.40;99.90
22706;DHT22;11520;51.198;4.468;2023-05-07T07:41:00;21.60;99.90
22706;DHT22;11520;51.198;4.468;2023-05-07T07:43:26;21.70;99.90
22706;DHT22;11520;51.198;4.468;2023-05-07T07:45:52;21.60;99.90
22706;DHT22;11520;51.198;4.468;2023-05-07T07:48:18;21.80;99.90
22706;DHT22;11520;51.198;4.468;2023-05-07T07:50:48;21.90;99.90
22706;DHT22;11520;51.198;4.468;2023-05-07T07:53:13;21.90;99.90
22706;DHT22;11520;51.198;4.468;2023-05-07T07:55:39;22.10;99.90
22706;DHT22;11520;51.198;4.468;2023-05-07T07:58:05;22.30;99.90
22706;DHT22;11520;51.198;4.468;2023-05-07T08:00:31;22.40;99.90
22706;DHT22;11520;51.198;4.468;2023-05-07T08:02:56;22.30;99.90
22706;DHT22;11520;51.198;4.468;2023-05-07T08:05:23;22.40;99.90
22706;DHT22;11520;51.198;4.468;2023-05-07T08:07:48;22.60;99.90
22706;DHT22;11520;51.198;4.468;2023-05-07T08:10:18;22.50;99.90
22706;DHT22;11520;51.198;4.468;2023-05-07T08:12:50;22.60;99.90
22706;DHT22;11520;51.198;4.468;2023-05-07T08:15:17;22.60;99.90
22706;DHT22;11520;51.198;4.468;2023-05-07T08:17:43;22.70;99.90
22706;DHT22;11520;51.198;4.468;2023-05-07T08:20:09;22.70;99.90
22706;DHT22;11520;51.198;4.468;2023-05-07T08:22:36;22.80;99.90
22706;DHT22;11520;51.198;4.468;2023-05-07T08:25:02;22.60;99.90
22706;DHT22;11520;51.198;4.468;2023-05-07T08:27:28;22.40;99.90
22706;DHT22;11520;51.198;4.468;2023-05-07T08:29:54;22.40;99.90
22706;DHT22;11520;51.198;4.468;2023-05-07T08:32:20;22.40;99.90
22706;DHT22;11520;51.198;4.468;2023-05-07T08:34:47;22.60;99.90
22706;DHT22;11520;51.198;4.468;2023-05-07T08:37:12;22.70;99.90
22706;DHT22;11520;51.198;4.468;2023-05-07T08:39:38;22.90;99.90
22706;DHT22;11520;51.198;4.468;2023-05-07T08:42:04;23.10;99.90
22706;DHT22;11520;51.198;4.468;2023-05-07T08:44:34;23.20;99.90
22706;DHT22;11520;51.198;4.468;2023-05-07T08:47:02;23.30;99.90
22706;DHT22;11520;51.198;4.468;2023-05-07T08:49:31;23.20;99.90
22706;DHT22;11520;51.198;4.468;2023-05-07T08:51:59;23.10;99.90
22706;DHT22;11520;51.198;4.468;2023-05-07T08:54:25;22.90;99.90
22706;DHT22;11520;51.198;4.468;2023-05-07T08:56:51;22.70;99.90
22706;DHT22;11520;51.198;4.468;2023-05-07T08:59:17;22.60;99.90
22706;DHT22;11520;51.198;4.468;2023-05-07T09:01:42;22.70;99.90
22706;DHT22;11520;51.198;4.468;2023-05-07T09:06:37;22.50;99.90
22706;DHT22;11520;51.198;4.468;2023-05-07T09:09:07;22.60;99.90
22706;DHT22;11520;51.198;4.468;2023-05-07T09:11:33;22.70;99.90
22706;DHT22;11520;51.198;4.468;2023-05-07T09:13:58;22.90;99.90
22706;DHT22;11520;51.198;4.468;2023-05-07T09:16:29;23.00;99.90
22706;DHT22;11520;51.198;4.468;2023-05-07T09:18:57;23.10;99.90
22706;DHT22;11520;51.198;4.468;2023-05-07T09:21:23;23.20;99.90
22706;DHT22;11520;51.198;4.468;2023-05-07T09:23:53;23.20;99.90
22706;DHT22;11520;51.198;4.468;2023-05-07T09:26:24;23.30;99.90
22706;DHT22;11520;51.198;4.468;2023-05-07T09:28:49;23.30;99.90
22706;DHT22;11520;51.198;4.468;2023-05-07T09:31:17;23.40;99.90
22706;DHT22;11520;51.198;4.468;2023-05-07T09:33:43;23.40;99.90
22706;DHT22;11520;51.198;4.468;2023-05-07T09:36:09;23.10;99.90
22706;DHT22;11520;51.198;4.468;2023-05-07T09:38:36;22.90;99.90
22706;DHT22;11520;51.198;4.468;2023-05-07T09:41:11;23.10;99.90
22706;DHT22;11520;51.198;4.468;2023-05-07T09:43:38;23.10;99.90
22706;DHT22;11520;51.198;4.468;2023-05-07T09:46:11;23.00;99.90
22706;DHT22;11520;51.198;4.468;2023-05-07T09:48:38;23.00;99.90
22706;DHT22;11520;51.198;4.468;2023-05-07T09:51:15;22.60;99.90
22706;DHT22;11520;51.198;4.468;2023-05-07T09:53:43;22.60;99.90
22706;DHT22;11520;51.198;4.468;2023-05-07T09:56:13;22.80;99.90
22706;DHT22;11520;51.198;4.468;2023-05-07T09:58:41;22.60;99.90
22706;DHT22;11520;51.198;4.468;2023-05-07T10:01:07;22.40;99.90
22706;DHT22;11520;51.198;4.468;2023-05-07T10:03:33;22.30;99.90
22706;DHT22;11520;51.198;4.468;2023-05-07T10:06:01;22.30;99.90
22706;DHT22;11520;51.198;4.468;2023-05-07T10:08:29;22.20;99.90
22706;DHT22;11520;51.198;4.468;2023-05-07T10:10:55;22.30;99.90
22706;DHT22;11520;51.198;4.468;2023-05-07T10:13:21;22.30;99.90
22706;DHT22;11520;51.198;4.468;2023-05-07T10:15:49;22.20;99.90
22706;DHT22;11520;51.198;4.468;2023-05-07T10:18:16;22.00;99.90
22706;DHT22;11520;51.198;4.468;2023-05-07T10:20:43;22.00;99.90
22706;DHT22;11520;51.198;4.468;2023-05-07T10:23:13;22.10;99.90
22706;DHT22;11520;51.198;4.468;2023-05-07T10:25:40;22.20;99.90
22706;DHT22;11520;51.198;4.468;2023-05-07T10:28:08;22.00;99.90
22706;DHT22;11520;51.198;4.468;2023-05-07T10:31:29;21.80;99.90
22706;DHT22;11520;51.198;4.468;2023-05-07T10:33:47;21.80;99.90
22706;DHT22;11520;51.198;4.468;2023-05-07T10:36:13;21.70;99.90
22706;DHT22;11520;51.198;4.468;2023-05-07T10:38:39;21.40;99.90
22706;DHT22;11520;51.198;4.468;2023-05-07T10:41:06;21.30;99.90
22706;DHT22;11520;51.198;4.468;2023-05-07T10:43:42;21.50;99.90
22706;DHT22;11520;51.198;4.468;2023-05-07T10:46:16;21.40;99.90
22706;DHT22;11520;51.198;4.468;2023-05-07T10:49:08;21.30;99.90
22706;DHT22;11520;51.198;4.468;2023-05-07T10:51:34;21.50;99.90
22706;DHT22;11520;51.198;4.468;2023-05-07T10:56:37;21.50;99.90
22706;DHT22;11520;51.198;4.468;2023-05-07T11:01:55;21.60;99.90
22706;DHT22;11520;51.198;4.468;2023-05-07T11:04:23;21.70;99.90
22706;DHT22;11520;51.198;4.468;2023-05-07T11:09:55;21.90;99.90
22706;DHT22;11520;51.198;4.468;2023-05-07T11:15:09;21.80;99.90
22706;DHT22;11520;51.198;4.468;2023-05-07T11:17:52;21.90;99.90
22706;DHT22;11520;51.198;4.468;2023-05-07T11:20:18;21.80;99.90
22706;DHT22;11520;51.198;4.468;2023-05-07T11:22:44;21.70;99.90
22706;DHT22;11520;51.198;4.468;2023-05-07T11:25:09;21.80;99.90
22706;DHT22;11520;51.198;4.468;2023-05-07T11:27:36;21.90;99.90
22706;DHT22;11520;51.198;4.468;2023-05-07T11:30:02;22.00;99.90
22706;DHT22;11520;51.198;4.468;2023-05-07T11:32:29;22.00;99.90
22706;DHT22;11520;51.198;4.468;2023-05-07T11:34:57;21.90;99.90
22706;DHT22;11520;51.198;4.468;2023-05-07T11:37:24;22.10;99.90
22706;DHT22;11520;51.198;4.468;2023-05-07T11:39:50;22.20;99.90
22706;DHT22;11520;51.198;4.468;2023-05-07T11:42:31;22.20;99.90
22706;DHT22;11520;51.198;4.468;2023-05-07T11:44:57;22.00;99.90
22706;DHT22;11520;51.198;4.468;2023-05-07T11:47:24;22.10;99.90
22706;DHT22;11520;51.198;4.468;2023-05-07T11:49:52;22.00;99.90
22706;DHT22;11520;51.198;4.468;2023-05-07T11:52:20;22.10;99.90
22706;DHT22;11520;51.198;4.468;2023-05-07T11:54:54;22.30;99.90
22706;DHT22;11520;51.198;4.468;2023-05-07T11:57:21;22.50;99.90
22706;DHT22;11520;51.198;4.468;2023-05-07T11:59:47;22.60;99.90
22706;DHT22;11520;51.198;4.468;2023-05-07T12:02:17;22.70;99.90
22706;DHT22;11520;51.198;4.468;2023-05-07T12:04:43;22.90;99.90
22706;DHT22;11520;51.198;4.468;2023-05-07T12:07:15;22.90;99.90
22706;DHT22;11520;51.198;4.468;2023-05-07T12:09:42;23.00;99.90
22706;DHT22;11520;51.198;4.468;2023-05-07T12:12:08;23.10;99.90
22706;DHT22;11520;51.198;4.468;2023-05-07T12:14:43;23.10;99.90
22706;DHT22;11520;51.198;4.468;2023-05-07T12:17:12;23.00;99.90
22706;DHT22;11520;51.198;4.468;2023-05-07T12:19:40;23.00;99.90
22706;DHT22;11520;51.198;4.468;2023-05-07T12:22:10;23.10;99.90
22706;DHT22;11520;51.198;4.468;2023-05-07T12:24:46;23.00;99.90
22706;DHT22;11520;51.198;4.468;2023-05-07T12:27:16;23.10;99.90
22706;DHT22;11520;51.198;4.468;2023-05-07T12:29:46;23.10;99.90
22706;DHT22;11520;51.198;4.468;2023-05-07T12:32:17;23.10;99.90
22706;DHT22;11520;51.198;4.468;2023-05-07T12:34:43;23.20;99.90
22706;DHT22;11520;51.198;4.468;2023-05-07T12:37:10;23.40;99.90
22706;DHT22;11520;51.198;4.468;2023-05-07T12:39:35;23.40;99.90
22706;DHT22;11520;51.198;4.468;2023-05-07T12:42:01;23.40;99.90
22706;DHT22;11520;51.198;4.468;2023-05-07T12:44:31;23.40;99.90
22706;DHT22;11520;51.198;4.468;2023-05-07T12:46:58;23.20;99.90
22706;DHT22;11520;51.198;4.468;2023-05-07T12:49:24;23.40;99.90
22706;DHT22;11520;51.198;4.468;2023-05-07T12:51:50;23.40;99.90
22706;DHT22;11520;51.198;4.468;2023-05-07T12:54:30;23.40;99.90
22706;DHT22;11520;51.198;4.468;2023-05-07T12:57:03;23.50;99.90
22706;DHT22;11520;51.198;4.468;2023-05-07T12:59:40;23.50;99.90
22706;DHT22;11520;51.198;4.468;2023-05-07T13:02:07;23.60;99.90
22706;DHT22;11520;51.198;4.468;2023-05-07T13:04:33;23.70;99.90
22706;DHT22;11520;51.198;4.468;2023-05-07T13:06:59;23.80;99.90
22706;DHT22;11520;51.198;4.468;2023-05-07T13:09:25;23.90;99.90
22706;DHT22;11520;51.198;4.468;2023-05-07T13:11:51;24.00;99.90
22706;DHT22;11520;51.198;4.468;2023-05-07T13:14:16;24.00;99.90
22706;DHT22;11520;51.198;4.468;2023-05-07T13:16:42;24.10;99.90
22706;DHT22;11520;51.198;4.468;2023-05-07T13:19:08;23.90;99.90
22706;DHT22;11520;51.198;4.468;2023-05-07T13:21:34;24.10;99.90
22706;DHT22;11520;51.198;4.468;2023-05-07T13:23:59;24.30;99.90
22706;DHT22;11520;51.198;4.468;2023-05-07T13:26:25;24.50;99.90
22706;DHT22;11520;51.198;4.468;2023-05-07T13:28:53;24.50;99.90
22706;DHT22;11520;51.198;4.468;2023-05-07T13:31:19;24.70;99.90
22706;DHT22;11520;51.198;4.468;2023-05-07T13:33:49;24.70;99.90
22706;DHT22;11520;51.198;4.468;2023-05-07T13:36:15;24.80;99.90
22706;DHT22;11520;51.198;4.468;2023-05-07T13:38:40;24.90;99.90
22706;DHT22;11520;51.198;4.468;2023-05-07T13:41:06;25.00;99.90
22706;DHT22;11520;51.198;4.468;2023-05-07T13:43:36;25.10;99.90
22706;DHT22;11520;51.198;4.468;2023-05-07T13:46:02;25.20;99.90
22706;DHT22;11520;51.198;4.468;2023-05-07T13:48:28;25.30;99.90
22706;DHT22;11520;51.198;4.468;2023-05-07T13:50:53;25.30;99.90
22706;DHT22;11520;51.198;4.468;2023-05-07T13:53:19;25.30;99.90
22706;DHT22;11520;51.198;4.468;2023-05-07T13:55:45;25.30;99.90
22706;DHT22;11520;51.198;4.468;2023-05-07T13:58:12;25.30;99.90
22706;DHT22;11520;51.198;4.468;2023-05-07T14:00:38;25.10;99.90
22706;DHT22;11520;51.198;4.468;2023-05-07T14:03:05;25.10;99.90
22706;DHT22;11520;51.198;4.468;2023-05-07T14:05:30;25.00;99.90
22706;DHT22;11520;51.198;4.468;2023-05-07T14:08:01;24.70;99.90
22706;DHT22;11520;51.198;4.468;2023-05-07T14:10:27;24.60;99.90
22706;DHT22;11520;51.198;4.468;2023-05-07T14:12:53;24.40;99.90
22706;DHT22;11520;51.198;4.468;2023-05-07T14:15:18;24.00;99.90
22706;DHT22;11520;51.198;4.468;2023-05-07T14:17:44;23.70;99.90
22706;DHT22;11520;51.198;4.468;2023-05-07T14:20:12;23.40;99.90
22706;DHT22;11520;51.198;4.468;2023-05-07T14:22:38;23.00;99.90
22706;DHT22;11520;51.198;4.468;2023-05-07T14:25:04;23.10;99.90
22706;DHT22;11520;51.198;4.468;2023-05-07T14:27:30;23.40;99.90
22706;DHT22;11520;51.198;4.468;2023-05-07T14:29:56;23.70;99.90
22706;DHT22;11520;51.198;4.468;2023-05-07T14:32:22;23.80;99.90
22706;DHT22;11520;51.198;4.468;2023-05-07T14:34:47;24.00;99.90
22706;DHT22;11520;51.198;4.468;2023-05-07T14:37:13;23.70;99.90
22706;DHT22;11520;51.198;4.468;2023-05-07T14:39:39;23.30;99.90
22706;DHT22;11520;51.198;4.468;2023-05-07T14:42:06;23.30;99.90
22706;DHT22;11520;51.198;4.468;2023-05-07T14:44:34;23.60;99.90
22706;DHT22;11520;51.198;4.468;2023-05-07T14:47:00;23.70;99.90
22706;DHT22;11520;51.198;4.468;2023-05-07T14:49:25;23.80;99.90
22706;DHT22;11520;51.198;4.468;2023-05-07T14:51:51;23.10;99.90
22706;DHT22;11520;51.198;4.468;2023-05-07T14:54:17;22.80;99.90
22706;DHT22;11520;51.198;4.468;2023-05-07T14:56:42;22.70;99.90
22706;DHT22;11520;51.198;4.468;2023-05-07T14:59:09;22.90;99.90
22706;DHT22;11520;51.198;4.468;2023-05-07T15:01:36;23.10;99.90
22706;DHT22;11520;51.198;4.468;2023-05-07T15:04:05;23.10;99.90
22706;DHT22;11520;51.198;4.468;2023-05-07T15:06:31;23.30;99.90
22706;DHT22;11520;51.198;4.468;2023-05-07T15:08:57;23.40;99.90
22706;DHT22;11520;51.198;4.468;2023-05-07T15:11:24;22.90;99.90
22706;DHT22;11520;51.198;4.468;2023-05-07T15:13:50;22.60;99.90
22706;DHT22;11520;51.198;4.468;2023-05-07T15:16:16;22.70;99.90
22706;DHT22;11520;51.198;4.468;2023-05-07T15:18:42;22.70;99.90
22706;DHT22;11520;51.198;4.468;2023-05-07T15:21:08;22.70;99.90
22706;DHT22;11520;51.198;4.468;2023-05-07T15:23:34;23.00;99.90
22706;DHT22;11520;51.198;4.468;2023-05-07T15:26:00;22.90;99.90
22706;DHT22;11520;51.198;4.468;2023-05-07T15:28:26;22.80;99.90
22706;DHT22;11520;51.198;4.468;2023-05-07T15:30:54;23.20;99.90
22706;DHT22;11520;51.198;4.468;2023-05-07T15:33:21;23.10;99.90
22706;DHT22;11520;51.198;4.468;2023-05-07T15:35:47;22.80;99.90
22706;DHT22;11520;51.198;4.468;2023-05-07T15:38:13;22.80;99.90
22706;DHT22;11520;51.198;4.468;2023-05-07T15:40:39;22.80;99.90